Terminal Aerodrome Forecast
Issued by NWS

Home | Current Version | Previous Version | Text Only | Print | Product List | Glossary On
Versions: 1 2 3 4 5 6 7 8 9 10 11 12 13 14 15 16 17 18 19 20 21 22 23 24
000
FTUS42 TJSJ 221000 AAC
TAFJSJ
TAF AMD
TJSJ 221008Z 2210/2306 10006KT P6SM VCTS SCT015CB BKN045
      TEMPO 2210/2213 3SM TSRA SCT010 BKN020CB OVC050
     FM221600 13010KT P6SM VCTS BKN020CB OVC040=

USA.gov is the U.S. government's official web portal to all federal, state and local government web resources and services.